Time;durP1;ratioP1;P1;durP2;ratioP2;P2;SDS_P1;SDS_P2;PMS_P1;PMS_P2;Temp;Humidity;BMP_temperature;BMP_pressure;BME280_temperature;BME280_humidity;BME280_pressure;Samples;Min_cycle;Max_cycle;Signal;HPM_P1;HPM_P2
2022/08/15 00:00:50;;;;;;;11.50;8.73;;;;;;;20.34;99.06;97478.08;1844218;77;20864;-61
2022/08/15 00:03:31;;;;;;;12.10;8.18;;;;;;;20.30;99.15;97470.42;1837737;77;20880;-61
2022/08/15 00:06:03;;;;;;;12.28;8.65;;;;;;;20.29;99.31;97471.59;1837521;77;21486;-61
2022/08/15 00:08:31;;;;;;;10.60;8.23;;;;;;;20.26;99.42;97469.59;1840738;77;21111;-61
2022/08/15 00:11:15;;;;;;;10.38;9.05;;;;;;;20.27;99.49;97473.89;1844276;77;21105;-61
2022/08/15 00:13:49;;;;;;;10.98;8.45;;;;;;;20.24;99.56;97478.69;1836328;77;20868;-60
2022/08/15 00:16:16;;;;;;;11.60;8.45;;;;;;;20.21;99.54;97473.16;1838049;77;20885;-61
2022/08/15 00:18:44;;;;;;;10.15;8.15;;;;;;;20.16;99.78;97462.61;1828621;77;20895;-61
2022/08/15 00:21:10;;;;;;;10.30;8.58;;;;;;;20.15;99.89;97457.74;1844645;77;21505;-61
2022/08/15 00:23:41;;;;;;;12.20;8.38;;;;;;;20.10;100.00;97459.41;1849108;77;20867;-61
2022/08/15 00:26:09;;;;;;;10.53;8.85;;;;;;;20.08;100.00;97460.34;1848527;77;20864;-61
2022/08/15 00:28:36;;;;;;;25.30;8.40;;;;;;;20.07;100.00;97465.56;1843729;77;20880;-62
2022/08/15 00:31:08;;;;;;;11.85;8.70;;;;;;;20.01;100.00;97464.88;1849507;77;21469;-61
2022/08/15 00:33:34;;;;;;;10.98;8.43;;;;;;;19.97;100.00;97470.84;1848463;77;21041;-61
2022/08/15 00:36:02;;;;;;;11.73;8.63;;;;;;;19.93;100.00;97470.77;1843637;77;21386;-62
2022/08/15 00:38:29;;;;;;;10.65;8.10;;;;;;;19.92;100.00;97467.06;1835118;77;20822;-61
2022/08/15 00:43:56;;;;;;;13.90;8.45;;;;;;;19.92;100.00;97471.94;1839702;77;20959;-61
2022/08/15 00:46:22;;;;;;;10.58;8.35;;;;;;;19.90;100.00;97472.88;1839890;77;21084;-60
2022/08/15 00:48:50;;;;;;;9.50;7.95;;;;;;;19.90;100.00;97482.39;1842984;77;20891;-61
2022/08/15 00:51:22;;;;;;;12.68;8.68;;;;;;;19.89;100.00;97482.16;1849181;77;20833;-61
2022/08/15 00:53:55;;;;;;;11.78;8.78;;;;;;;19.88;100.00;97475.74;1833020;77;20927;-61
2022/08/15 00:56:25;;;;;;;10.40;8.65;;;;;;;19.89;100.00;97479.44;1846892;77;21327;-61
2022/08/15 00:58:52;;;;;;;13.10;8.50;;;;;;;19.91;100.00;97480.43;1847474;77;21079;-61
2022/08/15 01:01:18;;;;;;;9.33;7.97;;;;;;;19.91;100.00;97483.94;1843589;77;20871;-61
2022/08/15 01:03:47;;;;;;;12.78;7.42;;;;;;;19.90;100.00;97476.95;1835682;77;20862;-61
2022/08/15 01:06:16;;;;;;;10.88;7.35;;;;;;;19.91;100.00;97473.07;1839044;77;20915;-62
2022/08/15 01:08:44;;;;;;;10.68;8.08;;;;;;;19.94;100.00;97471.56;1840081;77;20967;-61
2022/08/15 01:11:31;;;;;;;11.00;7.80;;;;;;;19.98;100.00;97478.63;1838023;77;21089;-62
2022/08/15 01:14:01;;;;;;;9.53;7.58;;;;;;;20.00;100.00;97478.25;1830574;77;20856;-61
2022/08/15 01:16:29;;;;;;;10.53;7.03;;;;;;;20.01;100.00;97475.19;1835905;77;21058;-60
2022/08/15 01:18:56;;;;;;;9.98;7.83;;;;;;;20.02;100.00;97470.55;1807942;77;21106;-62
2022/08/15 01:21:31;;;;;;;10.15;7.50;;;;;;;20.01;100.00;97473.83;1801581;78;20936;-62
2022/08/15 01:24:13;;;;;;;;;;;;;;;20.02;100.00;97474.62;1841455;77;22068;-61
2022/08/15 01:26:40;;;;;;;9.55;7.35;;;;;;;20.01;99.65;97477.91;1840371;77;20385;-61
2022/08/15 01:29:07;;;;;;;11.25;7.40;;;;;;;20.00;99.57;97482.33;1814175;77;20974;-61
2022/08/15 01:31:36;;;;;;;9.48;7.08;;;;;;;19.96;99.51;97471.41;1840087;77;20845;-62
2022/08/15 01:34:03;;;;;;;9.30;6.53;;;;;;;19.96;99.46;97465.97;1839243;77;20923;-62
2022/08/15 01:36:31;;;;;;;11.22;7.17;;;;;;;19.94;99.36;97468.27;1833175;77;21498;-60
2022/08/15 01:39:22;;;;;;;11.15;7.67;;;;;;;19.94;99.36;97463.41;1836900;77;20903;-60
2022/08/15 01:41:57;;;;;;;15.60;7.70;;;;;;;19.93;99.33;97470.77;1838945;77;20867;-61
2022/08/15 01:44:31;;;;;;;;;;;;;;;19.88;99.29;97462.91;1841244;78;20915;-61
2022/08/15 01:47:03;;;;;;;11.85;6.47;;;;;;;19.87;99.23;97462.72;1836980;77;20068;-60
2022/08/15 01:49:36;;;;;;;7.65;6.85;;;;;;;19.84;99.23;97464.80;1849431;77;21071;-60
2022/08/15 01:52:04;;;;;;;9.60;7.42;;;;;;;19.83;99.18;97465.96;1835720;77;20868;-60
2022/08/15 01:54:40;;;;;;;10.75;7.28;;;;;;;19.84;99.12;97460.72;1839519;77;20912;-60
2022/08/15 01:57:07;;;;;;;16.23;7.37;;;;;;;19.84;99.21;97462.08;1848980;77;20900;-60
2022/08/15 01:59:34;;;;;;;12.30;7.33;;;;;;;19.85;99.27;97463.66;1841447;77;20892;-62
2022/08/15 02:02:03;;;;;;;10.93;7.00;;;;;;;19.86;99.05;97460.34;1839646;77;21477;-61
2022/08/15 02:04:34;;;;;;;13.75;6.65;;;;;;;19.85;98.89;97460.95;1837728;77;20999;-61
2022/08/15 02:07:08;;;;;;;9.78;6.85;;;;;;;19.87;98.76;97457.28;1830676;77;20849;-61
2022/08/15 02:09:35;;;;;;;9.48;6.37;;;;;;;19.91;98.52;97462.20;1843921;77;20955;-60
2022/08/15 02:12:08;;;;;;;10.32;6.67;;;;;;;19.92;98.21;97458.34;1838559;77;20976;-61
2022/08/15 02:14:37;;;;;;;8.33;6.92;;;;;;;19.91;97.93;97460.84;1834271;77;21047;-62
2022/08/15 02:17:03;;;;;;;11.65;6.75;;;;;;;19.93;97.94;97470.77;1839184;77;21037;-61
2022/08/15 02:19:31;;;;;;;11.78;6.60;;;;;;;19.89;97.98;97469.94;1830850;77;21016;-61
2022/08/15 02:21:59;;;;;;;9.05;6.50;;;;;;;19.87;98.02;97471.44;1839248;77;21390;-62
2022/08/15 02:24:26;;;;;;;11.38;6.25;;;;;;;19.85;98.08;97464.23;1813588;78;20926;-62
2022/08/15 02:26:53;;;;;;;9.65;7.10;;;;;;;19.87;98.03;97456.50;1838565;77;21113;-62
2022/08/15 02:29:25;;;;;;;9.83;6.60;;;;;;;19.86;98.11;97463.86;1848209;77;21002;-62
2022/08/15 02:31:54;;;;;;;10.08;6.75;;;;;;;19.87;98.11;97458.64;1836917;78;20916;-62
2022/08/15 02:34:20;;;;;;;10.00;6.70;;;;;;;19.83;98.00;97459.17;1840068;77;20959;-61
2022/08/15 02:36:48;;;;;;;10.82;7.10;;;;;;;19.80;98.08;97457.17;1844911;77;20903;-61
2022/08/15 02:39:16;;;;;;;10.28;7.33;;;;;;;19.81;98.06;97451.92;1843351;77;21230;-62
2022/08/15 02:41:50;;;;;;;12.98;7.60;;;;;;;19.80;98.09;97447.66;1849062;77;20955;-62
2022/08/15 02:44:14;;;;;;;7.50;6.65;;;;;;;19.81;98.15;97443.02;1836724;77;20895;-62
2022/08/15 02:46:43;;;;;;;9.75;6.65;;;;;;;19.81;98.17;97441.06;1841879;77;20955;-61
2022/08/15 02:49:12;;;;;;;13.10;6.80;;;;;;;19.79;98.06;97435.20;1840799;77;20963;-62
2022/08/15 02:51:40;;;;;;;8.80;6.62;;;;;;;19.76;98.01;97438.64;1838506;77;21175;-61
2022/08/15 02:54:08;;;;;;;10.85;7.50;;;;;;;19.73;98.04;97433.95;1835097;77;21394;-62
2022/08/15 02:56:35;;;;;;;8.45;6.60;;;;;;;19.70;98.26;97441.46;1842967;77;20840;-62
2022/08/15 02:59:07;;;;;;;8.15;6.72;;;;;;;19.65;98.45;97434.97;1844454;77;21363;-62
2022/08/15 03:01:37;;;;;;;11.38;6.83;;;;;;;19.59;98.62;97439.14;1849293;77;20955;-61
2022/08/15 03:04:05;;;;;;;11.03;7.42;;;;;;;19.55;98.94;97439.06;1844633;77;21065;-62
2022/08/15 03:06:32;;;;;;;12.82;7.83;;;;;;;19.54;99.21;97438.08;1849330;77;21478;-61
2022/08/15 03:09:06;;;;;;;8.65;7.60;;;;;;;19.50;99.41;97433.16;1833072;77;20969;-62
2022/08/15 03:11:38;;;;;;;10.60;7.15;;;;;;;19.52;99.58;97434.94;1808063;77;20924;-61
2022/08/15 03:14:09;;;;;;;11.95;7.20;;;;;;;19.53;99.79;97441.93;1842703;77;20872;-61
2022/08/15 03:16:42;;;;;;;8.80;7.10;;;;;;;19.53;99.96;97447.36;1848021;77;21121;-62
2022/08/15 03:19:08;;;;;;;10.13;7.62;;;;;;;19.54;100.00;97448.95;1844565;77;20873;-61
2022/08/15 03:21:36;;;;;;;10.60;7.42;;;;;;;19.56;100.00;97448.00;1849136;77;20903;-62
2022/08/15 03:24:05;;;;;;;12.28;8.05;;;;;;;19.60;100.00;97459.70;1835446;77;20893;-62
2022/08/15 03:26:32;;;;;;;10.45;7.90;;;;;;;19.62;99.95;97458.77;1832053;77;20951;-63
2022/08/15 03:28:59;;;;;;;9.73;6.90;;;;;;;19.62;99.98;97464.99;1843805;77;21120;-59
2022/08/15 03:31:26;;;;;;;8.93;6.37;;;;;;;19.62;100.00;97464.20;1842302;77;20900;-61
2022/08/15 03:33:53;;;;;;;10.20;7.40;;;;;;;19.61;100.00;97464.02;1846418;77;20893;-61
2022/08/15 03:36:21;;;;;;;9.28;7.47;;;;;;;19.64;100.00;97463.30;1842282;77;20896;-60
2022/08/15 03:38:47;;;;;;;8.83;7.40;;;;;;;19.66;99.67;97465.86;1837862;77;21441;-60
2022/08/15 03:41:14;;;;;;;10.70;7.42;;;;;;;19.69;99.58;97463.77;1848503;77;22110;-62
2022/08/15 03:43:43;;;;;;;10.03;7.00;;;;;;;19.70;99.43;97459.12;1845854;77;20984;-60
2022/08/15 03:46:13;;;;;;;8.15;6.35;;;;;;;19.73;99.13;97459.77;1849079;77;20932;-61
2022/08/15 03:48:45;;;;;;;8.50;7.45;;;;;;;19.73;98.97;97465.98;1836406;77;20892;-60
2022/08/15 03:51:13;;;;;;;7.83;6.75;;;;;;;19.75;98.90;97469.69;1841975;77;20958;-58
2022/08/15 03:53:47;;;;;;;8.73;7.47;;;;;;;19.74;98.95;97469.47;1844817;77;21123;-62
2022/08/15 03:56:18;;;;;;;9.83;6.83;;;;;;;19.74;98.98;97476.26;1842461;77;20912;-60
2022/08/15 03:58:45;;;;;;;9.23;6.60;;;;;;;19.75;98.94;97472.41;1849165;77;21398;-62
2022/08/15 04:01:17;;;;;;;12.33;6.90;;;;;;;19.76;98.95;97473.39;1849006;77;20963;-61
2022/08/15 04:03:48;;;;;;;11.88;6.95;;;;;;;19.76;98.90;97460.38;1837271;77;20956;-62
2022/08/15 04:06:19;;;;;;;9.53;7.10;;;;;;;19.77;99.00;97456.52;1834526;77;21879;-60
2022/08/15 04:08:48;;;;;;;9.48;7.22;;;;;;;19.73;98.89;97447.53;1847773;77;21332;-60
2022/08/15 04:11:16;;;;;;;14.10;7.22;;;;;;;19.74;99.00;97453.16;1835138;77;20896;-61
2022/08/15 04:13:43;;;;;;;9.55;6.65;;;;;;;19.77;98.74;97464.11;1848412;77;20939;-61
2022/08/15 04:16:10;;;;;;;7.95;6.67;;;;;;;19.75;98.54;97452.82;1851045;77;21501;-61
2022/08/15 04:18:38;;;;;;;10.45;7.40;;;;;;;19.72;98.71;97452.18;1844510;77;21035;-61
2022/08/15 04:21:07;;;;;;;10.98;7.03;;;;;;;19.70;98.78;97452.33;1840315;77;20825;-62
2022/08/15 04:23:33;;;;;;;8.85;7.05;;;;;;;19.68;98.95;97451.91;1849292;77;20900;-62
2022/08/15 04:26:01;;;;;;;8.60;7.45;;;;;;;19.65;99.13;97462.92;1829327;77;21015;-63
2022/08/15 04:28:30;;;;;;;10.58;7.03;;;;;;;19.68;99.14;97454.06;1846749;77;20868;-61
2022/08/15 04:30:59;;;;;;;7.95;6.67;;;;;;;19.71;99.14;97458.75;1844158;77;21235;-63
2022/08/15 04:33:29;;;;;;;10.60;7.50;;;;;;;19.72;98.98;97456.82;1843995;77;20812;-61
2022/08/15 04:36:10;;;;;;;10.70;7.55;;;;;;;19.75;99.02;97457.47;1839954;77;21092;-62
2022/08/15 04:38:39;;;;;;;11.68;7.65;;;;;;;19.77;98.87;97455.16;1849948;77;20936;-63
2022/08/15 04:41:07;;;;;;;7.80;7.10;;;;;;;19.77;98.70;97456.52;1835780;77;20949;-61
2022/08/15 04:43:34;;;;;;;10.38;7.00;;;;;;;19.77;98.43;97452.45;1847066;77;22018;-60
2022/08/15 04:46:01;;;;;;;10.05;6.90;;;;;;;19.78;98.48;97447.23;1838360;77;21026;-61
2022/08/15 04:48:28;;;;;;;12.73;7.75;;;;;;;19.80;98.33;97451.73;1848411;77;20868;-62
2022/08/15 04:50:56;;;;;;;10.10;6.78;;;;;;;19.82;98.28;97445.36;1840813;77;21033;-59
2022/08/15 04:53:26;;;;;;;9.95;7.33;;;;;;;19.83;98.24;97440.15;1833869;77;20998;-60
2022/08/15 04:55:53;;;;;;;10.93;6.97;;;;;;;19.86;98.25;97433.96;1835119;77;22106;-61
2022/08/15 04:58:20;;;;;;;9.28;7.53;;;;;;;19.88;97.91;97441.17;1831587;77;20914;-60
2022/08/15 05:01:02;;;;;;;9.78;6.75;;;;;;;19.89;98.02;97443.33;1846595;77;21379;-59
2022/08/15 05:03:30;;;;;;;14.05;7.62;;;;;;;19.88;98.18;97438.45;1825946;77;21053;-59
2022/08/15 05:06:01;;;;;;;8.03;7.17;;;;;;;19.88;98.43;97433.02;1834368;77;20816;-60
2022/08/15 05:08:31;;;;;;;9.13;7.58;;;;;;;19.91;98.60;97432.87;1836550;77;21095;-60
2022/08/15 05:11:04;;;;;;;11.03;7.47;;;;;;;19.92;98.50;97433.89;1837978;77;20979;-61
2022/08/15 05:13:35;;;;;;;9.38;7.05;;;;;;;19.91;98.59;97430.94;1838200;77;21410;-61
2022/08/15 05:16:07;;;;;;;8.05;6.62;;;;;;;19.96;98.68;97435.28;1844967;77;21411;-62
2022/08/15 05:18:36;;;;;;;7.50;6.80;;;;;;;19.98;98.99;97437.85;1830621;77;21574;-60
2022/08/15 05:21:02;;;;;;;9.98;7.30;;;;;;;20.05;98.94;97432.53;1846541;77;21147;-62
2022/08/15 05:23:30;;;;;;;8.58;7.67;;;;;;;20.09;98.70;97426.56;1838485;77;21025;-62
2022/08/15 05:25:59;;;;;;;8.08;7.10;;;;;;;20.14;98.72;97426.82;1833580;77;20876;-62
2022/08/15 05:28:25;;;;;;;8.83;7.55;;;;;;;20.20;98.50;97432.17;1837564;77;20985;-63
2022/08/15 05:30:53;;;;;;;9.78;7.03;;;;;;;20.24;98.35;97429.75;1839412;77;21033;-64
2022/08/15 05:33:25;;;;;;;8.15;7.37;;;;;;;20.31;98.23;97438.58;1843862;77;21221;-62
2022/08/15 05:35:54;;;;;;;10.75;7.87;;;;;;;20.38;98.00;97436.75;1822861;77;20923;-63
2022/08/15 05:38:28;;;;;;;10.32;7.47;;;;;;;20.44;97.58;97427.11;1806960;77;21002;-59
2022/08/15 05:41:08;;;;;;;9.45;7.45;;;;;;;20.48;97.29;97430.46;1811339;77;21090;-59
2022/08/15 05:44:14;;;;;;;11.40;7.60;;;;;;;20.54;96.87;97431.73;1826175;77;20915;-59
2022/08/15 05:46:59;;;;;;;;;;;;;;;20.62;96.81;97434.73;1822471;77;21037;-61
2022/08/15 05:49:54;;;;;;;10.70;7.83;;;;;;;20.68;96.47;97434.04;1840141;77;20276;-61
2022/08/15 05:52:52;;;;;;;10.58;7.87;;;;;;;20.71;95.98;97433.31;1845288;77;21481;-60
2022/08/15 05:55:50;;;;;;;9.28;7.17;;;;;;;20.79;95.73;97426.03;1813926;78;21431;-60
2022/08/15 05:58:40;;;;;;;10.40;7.12;;;;;;;20.81;95.31;97426.44;1829705;77;21456;-60
2022/08/15 06:01:19;;;;;;;8.40;6.78;;;;;;;20.85;94.99;97434.06;1810385;77;21118;-60
2022/08/15 06:03:56;;;;;;;8.43;7.53;;;;;;;20.89;94.93;97433.55;1845800;77;20956;-60
2022/08/15 06:06:27;;;;;;;9.08;8.18;;;;;;;20.94;94.86;97440.00;1815361;78;20884;-61
2022/08/15 06:09:07;;;;;;;10.63;7.58;;;;;;;20.99;94.79;97445.13;1814653;77;20853;-61
2022/08/15 06:11:44;;;;;;;8.20;7.05;;;;;;;21.03;94.46;97438.56;1809219;77;21001;-61
2022/08/15 06:14:36;;;;;;;10.25;7.10;;;;;;;21.03;94.02;97445.97;1770304;79;21591;-61
2022/08/15 06:17:12;;;;;;;11.25;7.67;;;;;;;21.03;93.80;97445.97;1779844;79;22506;-61
2022/08/15 06:19:46;;;;;;;11.20;8.08;;;;;;;21.06;93.56;97447.96;1746644;80;20960;-61
2022/08/15 06:22:36;;;;;;;9.85;7.55;;;;;;;21.08;93.51;97451.09;1738583;80;21322;-61
2022/08/15 06:25:26;;;;;;;8.03;6.78;;;;;;;21.11;93.19;97445.70;1774879;79;21516;-61
2022/08/15 06:28:24;;;;;;;13.25;7.83;;;;;;;21.13;92.83;97448.64;1773816;79;21392;-62
2022/08/15 06:31:06;;;;;;;9.58;7.45;;;;;;;21.15;92.79;97445.73;1789875;78;21066;-61
2022/08/15 06:33:53;;;;;;;10.70;8.10;;;;;;;21.17;92.73;97446.73;1731681;80;21035;-60
2022/08/15 06:36:37;;;;;;;12.93;8.03;;;;;;;21.20;92.57;97452.21;1755696;80;21121;-60
2022/08/15 06:39:21;;;;;;;10.25;7.40;;;;;;;21.21;92.15;97464.69;1730152;81;21521;-60
2022/08/15 06:42:00;;;;;;;9.70;7.53;;;;;;;21.21;92.29;97464.69;1755722;80;21091;-61
2022/08/15 06:44:28;;;;;;;9.53;7.17;;;;;;;21.23;92.02;97455.56;1766879;77;21094;-61
2022/08/15 07:03:34;;;;;;;10.18;8.33;;;;;;;21.58;91.06;97446.97;1819171;77;21053;-61
2022/08/15 07:06:00;;;;;;;9.38;7.92;;;;;;;21.68;91.15;97448.45;1801510;77;21099;-61
2022/08/15 07:08:48;;;;;;;9.10;7.83;;;;;;;21.80;90.83;97442.72;1785899;77;21246;-61
2022/08/15 07:11:40;;;;;;;11.55;7.65;;;;;;;21.92;90.51;97440.32;1806225;77;20962;-60
2022/08/15 07:14:39;;;;;;;11.33;7.40;;;;;;;22.00;89.90;97441.17;1804872;77;21586;-61
2022/08/15 07:17:23;;;;;;;7.97;6.97;;;;;;;22.08;89.35;97441.41;1806293;77;20976;-62
2022/08/15 07:19:56;;;;;;;14.63;7.10;;;;;;;22.14;89.19;97437.19;1785542;78;21074;-62
2022/08/15 07:22:33;;;;;;;7.83;7.03;;;;;;;22.22;88.38;97438.78;1813925;77;21794;-62
2022/08/15 07:24:59;;;;;;;10.85;6.87;;;;;;;22.31;87.88;97435.93;1819902;77;20927;-60
2022/08/15 07:27:33;;;;;;;10.38;6.97;;;;;;;22.39;87.24;97428.58;1823272;77;21523;-61
2022/08/15 07:30:18;;;;;;;8.85;6.80;;;;;;;22.49;86.94;97430.60;1805838;77;20941;-60
2022/08/15 07:32:54;;;;;;;9.33;7.25;;;;;;;22.54;86.15;97432.94;1806172;77;21024;-61
2022/08/15 07:35:27;;;;;;;9.33;7.20;;;;;;;22.57;85.03;97436.28;1778777;78;21667;-60
2022/08/15 07:38:02;;;;;;;10.82;7.25;;;;;;;22.54;84.54;97437.03;1813259;77;20848;-60
2022/08/15 07:40:36;;;;;;;7.92;6.75;;;;;;;22.47;84.03;97435.62;1806631;77;21037;-61
2022/08/15 07:43:06;;;;;;;8.20;7.12;;;;;;;22.39;83.92;97442.22;1811012;77;21161;-61
2022/08/15 07:45:39;;;;;;;11.28;7.10;;;;;;;22.33;84.35;97443.72;1800906;77;21478;-61
2022/08/15 07:48:23;;;;;;;11.15;6.92;;;;;;;22.35;85.32;97448.25;1819399;78;21721;-62
2022/08/15 07:51:17;;;;;;;8.83;7.28;;;;;;;22.37;85.71;97441.83;1792772;77;21026;-61
2022/08/15 07:53:59;;;;;;;7.92;6.75;;;;;;;22.39;85.33;97435.41;1799746;77;21366;-61
2022/08/15 07:56:29;;;;;;;8.20;6.55;;;;;;;22.39;85.82;97434.03;1772103;79;21442;-60
2022/08/15 07:59:09;;;;;;;18.98;7.15;;;;;;;22.38;86.08;97440.64;1797159;78;20864;-60
2022/08/15 08:01:38;;;;;;;10.38;7.15;;;;;;;22.38;86.70;97436.55;1809003;77;21470;-60
2022/08/15 08:04:11;;;;;;;17.60;8.13;;;;;;;22.34;86.56;97428.94;1774225;79;20936;-60
2022/08/15 08:06:57;;;;;;;10.53;7.12;;;;;;;22.32;86.69;97434.78;1742533;79;21123;-60
2022/08/15 08:09:55;;;;;;;8.28;6.65;;;;;;;22.30;86.55;97437.69;1808297;77;21063;-59
2022/08/15 08:12:36;;;;;;;11.88;6.53;;;;;;;22.27;87.05;97441.16;1811582;77;21491;-61
2022/08/15 08:15:25;;;;;;;11.55;6.78;;;;;;;22.20;87.58;97435.08;1827024;77;21182;-61
2022/08/15 08:18:03;;;;;;;8.03;7.00;;;;;;;22.19;87.74;97443.62;1816942;77;21505;-61
2022/08/15 08:21:05;;;;;;;9.43;6.65;;;;;;;22.23;87.93;97456.13;1763685;77;21050;-60
2022/08/15 08:23:45;;;;;;;10.65;7.60;;;;;;;22.23;87.26;97448.55;1760713;80;21062;-60
2022/08/15 08:26:35;;;;;;;8.15;7.25;;;;;;;22.21;87.22;97452.23;1770513;80;21588;-60
2022/08/15 08:29:27;;;;;;;12.68;7.10;;;;;;;22.16;86.73;97449.86;1747585;80;21876;-59
2022/08/15 08:32:36;;;;;;;10.40;7.28;;;;;;;22.08;86.91;97449.59;1747927;80;21011;-60
2022/08/15 08:35:24;;;;;;;10.93;7.67;;;;;;;22.03;87.28;97444.48;1762748;79;21542;-59
2022/08/15 08:38:26;;;;;;;11.53;7.50;;;;;;;22.02;87.83;97444.30;1766569;80;20962;-59
2022/08/15 08:44:01;;;;;;;9.13;6.78;;;;;;;22.05;88.51;97448.97;1779435;79;21358;-60
2022/08/15 08:46:48;;;;;;;16.07;7.65;;;;;;;22.12;88.84;97451.18;1773215;79;20964;-60
2022/08/15 08:49:44;;;;;;;12.58;7.33;;;;;;;22.23;89.19;97454.00;1782657;79;21063;-60
2022/08/15 08:52:29;;;;;;;17.98;7.03;;;;;;;22.43;89.34;97468.36;1768551;79;21072;-59
2022/08/15 08:55:24;;;;;;;20.07;8.10;;;;;;;22.63;88.43;97474.38;1780630;78;20991;-60
2022/08/15 08:58:03;;;;;;;18.32;7.65;;;;;;;22.80;87.12;97484.59;1815009;77;21236;-60
2022/08/15 09:00:37;;;;;;;12.93;7.22;;;;;;;23.02;86.71;97495.84;1803930;77;21005;-59
2022/08/15 09:03:29;;;;;;;14.95;7.95;;;;;;;23.23;85.76;97499.24;1780232;79;20921;-59
2022/08/15 09:05:58;;;;;;;13.03;7.05;;;;;;;23.41;84.65;97495.25;1801478;77;21744;-61
2022/08/15 09:08:38;;;;;;;11.60;7.17;;;;;;;23.52;83.25;97498.79;1796393;77;21068;-60
2022/08/15 09:11:28;;;;;;;11.75;6.25;;;;;;;23.55;82.68;97485.73;1799595;77;21828;-60
2022/08/15 09:13:58;;;;;;;10.40;6.00;;;;;;;23.55;82.44;97484.36;1804774;77;21053;-62
2022/08/15 09:16:35;;;;;;;9.15;6.17;;;;;;;23.61;82.26;97478.70;1806120;77;21151;-60
2022/08/15 09:19:18;;;;;;;16.02;6.60;;;;;;;23.66;81.41;97470.13;1805433;77;21020;-60
2022/08/15 09:21:44;;;;;;;9.98;7.00;;;;;;;23.72;81.64;97466.61;1757438;80;21482;-60
2022/08/15 09:24:12;;;;;;;7.95;6.20;;;;;;;23.79;81.64;97463.09;1763202;79;21315;-61
2022/08/15 09:26:48;;;;;;;7.80;6.20;;;;;;;23.82;81.63;97451.39;1763947;79;21082;-61
2022/08/15 09:29:30;;;;;;;8.63;5.92;;;;;;;23.85;81.57;97454.73;1752230;80;21101;-61
2022/08/15 09:32:29;;;;;;;9.50;6.28;;;;;;;23.88;81.47;97443.02;1754180;80;21048;-60
2022/08/15 09:35:24;;;;;;;9.18;6.65;;;;;;;23.89;81.50;97441.04;1773996;79;21552;-61
2022/08/15 09:38:41;;;;;;;11.48;6.75;;;;;;;23.82;81.75;97428.15;1756048;80;21137;-59
2022/08/15 09:41:25;;;;;;;12.30;6.65;;;;;;;23.78;81.87;97428.74;1733243;79;20923;-60
2022/08/15 09:44:20;;;;;;;7.42;6.22;;;;;;;23.70;81.80;97425.80;1760458;80;20998;-60
2022/08/15 09:47:10;;;;;;;9.18;6.45;;;;;;;23.65;82.20;97424.80;1743079;80;21027;-60
2022/08/15 09:50:12;;;;;;;7.95;6.33;;;;;;;23.60;82.68;97416.41;1644155;80;21074;-61
2022/08/15 09:52:55;;;;;;;8.93;6.85;;;;;;;23.59;82.93;97423.64;1747512;79;21475;-61
2022/08/15 09:55:44;;;;;;;13.32;7.65;;;;;;;23.57;83.28;97429.51;1746840;80;21111;-62
2022/08/15 09:58:27;;;;;;;9.48;7.78;;;;;;;23.59;83.50;97427.74;1775020;78;21517;-61
2022/08/15 10:01:12;;;;;;;11.80;7.58;;;;;;;23.65;83.84;97435.73;1767698;78;21065;-62
2022/08/15 10:03:52;;;;;;;11.50;8.35;;;;;;;23.68;83.60;97429.50;1753257;80;21483;-61
2022/08/15 10:06:26;;;;;;;10.48;8.10;;;;;;;23.68;83.35;97430.30;1743437;80;21136;-61
2022/08/15 10:09:01;;;;;;;11.55;8.45;;;;;;;23.67;83.39;97425.23;1826100;77;21152;-61
2022/08/15 10:11:49;;;;;;;13.48;8.83;;;;;;;23.66;83.41;97424.44;1811545;77;21548;-59
2022/08/15 10:14:31;;;;;;;16.00;7.62;;;;;;;23.66;83.66;97422.28;1797406;77;21054;-60
2022/08/15 10:17:04;;;;;;;9.83;7.85;;;;;;;23.62;83.64;97422.27;1802796;77;21082;-59
2022/08/15 10:19:38;;;;;;;11.12;7.53;;;;;;;23.61;84.40;97418.56;1810174;78;22732;-61
2022/08/15 10:22:28;;;;;;;9.58;7.75;;;;;;;23.66;85.11;97419.55;1812538;78;21419;-59
2022/08/15 10:25:37;;;;;;;9.05;7.80;;;;;;;23.68;84.97;97416.63;1781200;78;21535;-60
2022/08/15 10:28:16;;;;;;;9.28;7.42;;;;;;;23.68;84.98;97407.05;1798983;77;20999;-59
2022/08/15 10:30:48;;;;;;;9.18;7.28;;;;;;;23.68;85.54;97406.27;1805031;77;21540;-60
2022/08/15 10:33:35;;;;;;;8.25;7.45;;;;;;;23.60;85.45;97406.84;1777530;77;21085;-60
2022/08/15 10:36:14;;;;;;;8.75;7.75;;;;;;;23.56;86.31;97405.27;1816091;77;21521;-60
2022/08/15 10:38:47;;;;;;;10.45;7.65;;;;;;;23.56;86.96;97405.27;1813757;77;21513;-60
2022/08/15 10:41:35;;;;;;;12.73;7.20;;;;;;;23.62;87.23;97399.64;1804331;77;20936;-60
2022/08/15 10:44:42;;;;;;;9.60;7.25;;;;;;;23.63;87.01;97391.61;1799690;78;21014;-61
2022/08/15 10:47:33;;;;;;;11.15;7.30;;;;;;;23.67;88.06;97391.05;1810619;78;21129;-60
2022/08/15 10:50:19;;;;;;;10.58;7.70;;;;;;;23.83;88.19;97390.08;1809084;77;21445;-60
2022/08/15 10:53:10;;;;;;;11.60;7.40;;;;;;;23.99;87.69;97385.56;1807936;77;21090;-61
2022/08/15 10:55:39;;;;;;;9.23;7.50;;;;;;;24.16;86.97;97386.95;1810141;77;21001;-61
2022/08/15 10:58:30;;;;;;;11.45;7.00;;;;;;;24.36;86.91;97380.45;1811166;77;21031;-60
2022/08/15 11:01:12;;;;;;;9.05;6.37;;;;;;;24.57;85.49;97385.08;1824148;77;21166;-62
2022/08/15 11:03:48;;;;;;;8.78;6.50;;;;;;;24.85;85.76;97378.16;1809894;77;21208;-61
2022/08/15 11:06:17;;;;;;;9.98;6.75;;;;;;;25.08;82.30;97386.69;1819733;77;21453;-61
2022/08/15 11:08:55;;;;;;;10.40;7.20;;;;;;;25.28;81.58;97379.52;1800975;77;21074;-62
2022/08/15 11:11:27;;;;;;;12.88;6.97;;;;;;;25.53;81.04;97386.25;1812401;77;21567;-62
2022/08/15 11:14:00;;;;;;;6.92;6.30;;;;;;;25.80;79.53;97394.85;1810813;77;21279;-62
2022/08/15 11:16:35;;;;;;;9.73;6.92;;;;;;;26.00;77.80;97398.42;1726375;81;21110;-60
2022/08/15 11:19:22;;;;;;;10.18;6.12;;;;;;;26.09;77.01;97400.09;1802072;77;21558;-59
2022/08/15 11:21:53;;;;;;;8.23;6.60;;;;;;;26.14;76.31;97399.69;1789703;77;20987;-61
2022/08/15 11:24:33;;;;;;;9.50;6.35;;;;;;;26.19;75.19;97399.26;1811473;77;21071;-60
2022/08/15 11:27:19;;;;;;;12.82;7.08;;;;;;;26.00;74.13;97402.53;1814624;77;21082;-60
2022/08/15 11:29:46;;;;;;;10.58;7.37;;;;;;;26.00;74.13;97402.53;1811751;77;20957;-60
2022/08/15 11:32:31;;;;;;;13.53;7.33;;;;;;;25.90;75.03;97408.88;1787058;77;20998;-61
2022/08/15 11:34:59;;;;;;;;;;;;;;;25.84;74.89;97405.02;1826533;77;21598;-60
2022/08/15 11:37:39;;;;;;;10.45;7.42;;;;;;;25.74;75.02;97399.19;1798329;77;20114;-61
2022/08/15 11:40:23;;;;;;;8.88;7.05;;;;;;;25.73;75.60;97399.02;1790900;78;21362;-61
2022/08/15 11:42:56;;;;;;;11.68;6.95;;;;;;;25.84;75.35;97400.91;1806119;77;21422;-63
2022/08/15 11:45:26;;;;;;;11.35;7.70;;;;;;;25.95;75.14;97397.48;1810181;77;21067;-62
2022/08/15 11:48:02;;;;;;;8.13;7.00;;;;;;;26.06;73.76;97400.90;1822772;77;21539;-62
2022/08/15 11:50:38;;;;;;;12.23;6.90;;;;;;;26.10;73.82;97401.64;1790256;77;21001;-62
2022/08/15 11:53:08;;;;;;;13.83;7.80;;;;;;;26.14;73.01;97398.33;1806895;77;21367;-63
2022/08/15 11:55:43;;;;;;;8.58;6.97;;;;;;;26.10;72.02;97394.78;1800348;77;21010;-61
2022/08/15 11:58:20;;;;;;;14.95;6.75;;;;;;;26.04;72.26;97393.67;1822140;77;20860;-62
2022/08/15 12:00:56;;;;;;;12.60;7.62;;;;;;;25.97;72.76;97395.11;1822774;77;21026;-61
2022/08/15 12:03:33;;;;;;;9.78;6.60;;;;;;;25.99;73.09;97398.22;1810769;77;21053;-61
2022/08/15 12:06:16;;;;;;;11.65;6.42;;;;;;;26.08;73.09;97404.02;1806713;78;21128;-59
2022/08/15 12:08:44;;;;;;;12.75;5.87;;;;;;;26.16;72.90;97401.44;1791184;77;21484;-60
2022/08/15 12:11:18;;;;;;;13.60;6.10;;;;;;;26.27;72.90;97391.12;1800444;77;21059;-62
2022/08/15 12:14:04;;;;;;;11.10;6.10;;;;;;;26.40;72.64;97390.81;1821402;77;21104;-60
2022/08/15 12:16:42;;;;;;;17.77;6.97;;;;;;;26.57;71.81;97387.08;1806349;77;21106;-60
2022/08/15 12:19:39;;;;;;;10.75;6.08;;;;;;;26.71;70.50;97381.42;1806973;77;21652;-60
2022/08/15 12:22:13;;;;;;;11.38;6.47;;;;;;;26.79;70.47;97387.06;1777711;79;21058;-62
2022/08/15 12:24:45;;;;;;;9.65;6.10;;;;;;;26.86;70.30;97375.98;1790524;78;21655;-61
2022/08/15 12:27:23;;;;;;;8.28;6.20;;;;;;;26.92;69.67;97377.69;1794835;77;21113;-60
2022/08/15 12:29:51;;;;;;;12.98;5.95;;;;;;;26.96;69.46;97380.58;1787376;77;21071;-61
2022/08/15 12:32:19;;;;;;;12.90;6.53;;;;;;;27.01;68.61;97380.70;1804626;77;21459;-61